sensor_id;sensor_type;location;lat;lon;timestamp;P1;durP1;ratioP1;P2;durP2;ratioP2
21521;SDS011;10922;45.572;10.002;2023-05-18T00:02:23;8.63;;;7.57;;
21521;SDS011;10922;45.572;10.002;2023-05-18T00:04:50;8.60;;;7.70;;
21521;SDS011;10922;45.572;10.002;2023-05-18T00:07:16;9.07;;;7.90;;
21521;SDS011;10922;45.572;10.002;2023-05-18T00:09:42;8.50;;;7.70;;
21521;SDS011;10922;45.572;10.002;2023-05-18T00:12:08;8.93;;;7.20;;
21521;SDS011;10922;45.572;10.002;2023-05-18T00:14:36;8.40;;;7.27;;
21521;SDS011;10922;45.572;10.002;2023-05-18T00:17:02;9.97;;;7.37;;
21521;SDS011;10922;45.572;10.002;2023-05-18T00:19:27;10.20;;;7.83;;
21521;SDS011;10922;45.572;10.002;2023-05-18T00:21:54;7.77;;;6.97;;
21521;SDS011;10922;45.572;10.002;2023-05-18T00:24:21;8.80;;;7.87;;
21521;SDS011;10922;45.572;10.002;2023-05-18T00:26:47;8.67;;;6.97;;
21521;SDS011;10922;45.572;10.002;2023-05-18T00:29:13;9.87;;;6.93;;
21521;SDS011;10922;45.572;10.002;2023-05-18T00:31:39;10.53;;;7.03;;
21521;SDS011;10922;45.572;10.002;2023-05-18T00:34:10;7.87;;;7.03;;
21521;SDS011;10922;45.572;10.002;2023-05-18T00:36:37;13.53;;;7.07;;
21521;SDS011;10922;45.572;10.002;2023-05-18T00:39:03;9.33;;;6.83;;
21521;SDS011;10922;45.572;10.002;2023-05-18T00:41:30;7.73;;;7.03;;
21521;SDS011;10922;45.572;10.002;2023-05-18T00:43:56;7.83;;;7.13;;
21521;SDS011;10922;45.572;10.002;2023-05-18T00:46:23;7.60;;;6.87;;
21521;SDS011;10922;45.572;10.002;2023-05-18T00:48:50;11.13;;;8.20;;
21521;SDS011;10922;45.572;10.002;2023-05-18T00:51:20;11.97;;;8.70;;
21521;SDS011;10922;45.572;10.002;2023-05-18T00:53:47;13.83;;;11.07;;
21521;SDS011;10922;45.572;10.002;2023-05-18T00:56:14;12.40;;;10.63;;
21521;SDS011;10922;45.572;10.002;2023-05-18T00:58:40;13.37;;;10.90;;
21521;SDS011;10922;45.572;10.002;2023-05-18T01:01:06;13.73;;;10.33;;
21521;SDS011;10922;45.572;10.002;2023-05-18T01:03:33;11.73;;;9.60;;
21521;SDS011;10922;45.572;10.002;2023-05-18T01:06:06;15.47;;;10.87;;
21521;SDS011;10922;45.572;10.002;2023-05-18T01:08:33;13.37;;;10.63;;
21521;SDS011;10922;45.572;10.002;2023-05-18T01:14:18;12.27;;;10.97;;
21521;SDS011;10922;45.572;10.002;2023-05-18T01:16:47;14.93;;;11.60;;
21521;SDS011;10922;45.572;10.002;2023-05-18T01:22:22;13.97;;;11.73;;
21521;SDS011;10922;45.572;10.002;2023-05-18T01:28:12;15.53;;;12.53;;
21521;SDS011;10922;45.572;10.002;2023-05-18T01:30:41;18.90;;;12.43;;
21521;SDS011;10922;45.572;10.002;2023-05-18T01:33:07;13.50;;;11.67;;
21521;SDS011;10922;45.572;10.002;2023-05-18T01:35:34;12.60;;;11.27;;
21521;SDS011;10922;45.572;10.002;2023-05-18T01:38:01;13.70;;;10.90;;
21521;SDS011;10922;45.572;10.002;2023-05-18T01:40:27;15.67;;;13.00;;
21521;SDS011;10922;45.572;10.002;2023-05-18T01:42:58;15.20;;;12.83;;
21521;SDS011;10922;45.572;10.002;2023-05-18T01:45:34;16.67;;;12.73;;
21521;SDS011;10922;45.572;10.002;2023-05-18T01:48:03;14.87;;;12.13;;
21521;SDS011;10922;45.572;10.002;2023-05-18T01:50:32;14.20;;;10.63;;
21521;SDS011;10922;45.572;10.002;2023-05-18T01:53:22;16.40;;;12.50;;
21521;SDS011;10922;45.572;10.002;2023-05-18T01:55:59;13.57;;;11.80;;
21521;SDS011;10922;45.572;10.002;2023-05-18T01:58:26;13.70;;;11.40;;
21521;SDS011;10922;45.572;10.002;2023-05-18T02:00:52;13.93;;;11.10;;
21521;SDS011;10922;45.572;10.002;2023-05-18T02:03:18;17.20;;;12.40;;
21521;SDS011;10922;45.572;10.002;2023-05-18T02:05:44;12.40;;;11.10;;
21521;SDS011;10922;45.572;10.002;2023-05-18T02:08:10;17.50;;;12.00;;
21521;SDS011;10922;45.572;10.002;2023-05-18T02:10:36;13.70;;;11.23;;
21521;SDS011;10922;45.572;10.002;2023-05-18T02:13:01;12.50;;;11.20;;
21521;SDS011;10922;45.572;10.002;2023-05-18T02:15:27;11.83;;;10.43;;
21521;SDS011;10922;45.572;10.002;2023-05-18T02:17:53;14.10;;;10.93;;
21521;SDS011;10922;45.572;10.002;2023-05-18T02:20:22;12.90;;;11.43;;
21521;SDS011;10922;45.572;10.002;2023-05-18T02:22:47;13.43;;;11.77;;
21521;SDS011;10922;45.572;10.002;2023-05-18T02:25:13;14.60;;;12.67;;
21521;SDS011;10922;45.572;10.002;2023-05-18T02:27:39;12.67;;;11.37;;
21521;SDS011;10922;45.572;10.002;2023-05-18T02:30:04;13.30;;;11.23;;
21521;SDS011;10922;45.572;10.002;2023-05-18T02:32:32;16.50;;;12.23;;
21521;SDS011;10922;45.572;10.002;2023-05-18T02:35:03;12.37;;;11.10;;
21521;SDS011;10922;45.572;10.002;2023-05-18T02:37:31;13.30;;;11.63;;
21521;SDS011;10922;45.572;10.002;2023-05-18T02:39:58;13.80;;;12.40;;
21521;SDS011;10922;45.572;10.002;2023-05-18T02:42:25;14.40;;;11.07;;
21521;SDS011;10922;45.572;10.002;2023-05-18T02:44:51;13.03;;;11.03;;
21521;SDS011;10922;45.572;10.002;2023-05-18T02:47:16;16.20;;;12.13;;
21521;SDS011;10922;45.572;10.002;2023-05-18T02:49:42;13.27;;;11.87;;
21521;SDS011;10922;45.572;10.002;2023-05-18T02:52:07;11.37;;;10.00;;
21521;SDS011;10922;45.572;10.002;2023-05-18T02:54:33;12.63;;;11.23;;
21521;SDS011;10922;45.572;10.002;2023-05-18T02:56:59;12.37;;;11.17;;
21521;SDS011;10922;45.572;10.002;2023-05-18T02:59:24;13.80;;;11.03;;
21521;SDS011;10922;45.572;10.002;2023-05-18T03:01:50;11.53;;;10.33;;
21521;SDS011;10922;45.572;10.002;2023-05-18T03:04:16;11.60;;;10.50;;
21521;SDS011;10922;45.572;10.002;2023-05-18T03:06:41;12.93;;;10.80;;
21521;SDS011;10922;45.572;10.002;2023-05-18T03:09:10;12.93;;;10.37;;
21521;SDS011;10922;45.572;10.002;2023-05-18T03:11:36;11.10;;;9.60;;
21521;SDS011;10922;45.572;10.002;2023-05-18T03:14:02;10.60;;;9.50;;
21521;SDS011;10922;45.572;10.002;2023-05-18T03:16:28;11.37;;;10.27;;
21521;SDS011;10922;45.572;10.002;2023-05-18T03:18:54;12.23;;;10.07;;
21521;SDS011;10922;45.572;10.002;2023-05-18T03:21:22;9.37;;;8.47;;
21521;SDS011;10922;45.572;10.002;2023-05-18T03:23:48;9.63;;;8.67;;
21521;SDS011;10922;45.572;10.002;2023-05-18T03:26:15;9.97;;;8.80;;
21521;SDS011;10922;45.572;10.002;2023-05-18T03:28:40;11.33;;;9.43;;
21521;SDS011;10922;45.572;10.002;2023-05-18T03:31:06;9.63;;;8.73;;
21521;SDS011;10922;45.572;10.002;2023-05-18T03:33:32;9.90;;;8.90;;
21521;SDS011;10922;45.572;10.002;2023-05-18T03:36:01;10.30;;;9.40;;
21521;SDS011;10922;45.572;10.002;2023-05-18T03:38:28;9.50;;;8.57;;
21521;SDS011;10922;45.572;10.002;2023-05-18T03:40:54;9.27;;;8.47;;
21521;SDS011;10922;45.572;10.002;2023-05-18T03:43:20;11.00;;;9.90;;
21521;SDS011;10922;45.572;10.002;2023-05-18T03:45:49;13.73;;;8.77;;
21521;SDS011;10922;45.572;10.002;2023-05-18T03:48:15;10.53;;;9.07;;
21521;SDS011;10922;45.572;10.002;2023-05-18T03:50:41;14.13;;;9.07;;
21521;SDS011;10922;45.572;10.002;2023-05-18T03:53:07;9.00;;;7.90;;
21521;SDS011;10922;45.572;10.002;2023-05-18T03:55:33;8.93;;;8.13;;
21521;SDS011;10922;45.572;10.002;2023-05-18T03:57:59;9.20;;;8.30;;
21521;SDS011;10922;45.572;10.002;2023-05-18T04:00:25;10.30;;;9.20;;
21521;SDS011;10922;45.572;10.002;2023-05-18T04:02:51;10.53;;;9.27;;
21521;SDS011;10922;45.572;10.002;2023-05-18T04:05:17;11.77;;;8.10;;
21521;SDS011;10922;45.572;10.002;2023-05-18T04:07:43;9.77;;;8.77;;
21521;SDS011;10922;45.572;10.002;2023-05-18T04:10:10;10.57;;;9.03;;
21521;SDS011;10922;45.572;10.002;2023-05-18T04:12:37;9.97;;;8.97;;
21521;SDS011;10922;45.572;10.002;2023-05-18T04:15:04;9.73;;;7.83;;
21521;SDS011;10922;45.572;10.002;2023-05-18T04:17:30;7.33;;;6.63;;
21521;SDS011;10922;45.572;10.002;2023-05-18T04:19:57;8.00;;;7.20;;
21521;SDS011;10922;45.572;10.002;2023-05-18T04:22:23;8.17;;;7.37;;
21521;SDS011;10922;45.572;10.002;2023-05-18T04:24:49;8.57;;;7.77;;
21521;SDS011;10922;45.572;10.002;2023-05-18T04:27:18;9.60;;;7.27;;
21521;SDS011;10922;45.572;10.002;2023-05-18T04:29:44;8.80;;;7.90;;
21521;SDS011;10922;45.572;10.002;2023-05-18T04:32:11;8.20;;;6.53;;
21521;SDS011;10922;45.572;10.002;2023-05-18T04:34:36;7.73;;;6.70;;
21521;SDS011;10922;45.572;10.002;2023-05-18T04:37:03;8.90;;;8.00;;
21521;SDS011;10922;45.572;10.002;2023-05-18T04:39:30;7.77;;;6.57;;
21521;SDS011;10922;45.572;10.002;2023-05-18T04:41:57;8.97;;;5.77;;
21521;SDS011;10922;45.572;10.002;2023-05-18T04:44:26;7.53;;;5.90;;
21521;SDS011;10922;45.572;10.002;2023-05-18T04:46:53;8.13;;;5.53;;
21521;SDS011;10922;45.572;10.002;2023-05-18T04:49:19;5.77;;;4.87;;
21521;SDS011;10922;45.572;10.002;2023-05-18T04:51:46;8.97;;;6.60;;
21521;SDS011;10922;45.572;10.002;2023-05-18T04:54:20;4.43;;;3.73;;
21521;SDS011;10922;45.572;10.002;2023-05-18T04:56:49;3.90;;;3.37;;
21521;SDS011;10922;45.572;10.002;2023-05-18T04:59:16;4.40;;;3.80;;
21521;SDS011;10922;45.572;10.002;2023-05-18T05:01:43;4.13;;;3.63;;
21521;SDS011;10922;45.572;10.002;2023-05-18T05:04:08;4.40;;;4.00;;
21521;SDS011;10922;45.572;10.002;2023-05-18T05:06:34;4.10;;;3.60;;
21521;SDS011;10922;45.572;10.002;2023-05-18T05:09:00;4.03;;;3.73;;
21521;SDS011;10922;45.572;10.002;2023-05-18T05:11:26;5.40;;;3.90;;
21521;SDS011;10922;45.572;10.002;2023-05-18T05:13:51;4.33;;;3.67;;
21521;SDS011;10922;45.572;10.002;2023-05-18T05:16:17;4.57;;;3.30;;
21521;SDS011;10922;45.572;10.002;2023-05-18T05:18:43;4.43;;;3.13;;
21521;SDS011;10922;45.572;10.002;2023-05-18T05:21:08;3.57;;;3.27;;
21521;SDS011;10922;45.572;10.002;2023-05-18T05:23:34;3.63;;;2.80;;
21521;SDS011;10922;45.572;10.002;2023-05-18T05:26:00;6.73;;;3.50;;
21521;SDS011;10922;45.572;10.002;2023-05-18T05:28:26;5.60;;;3.03;;
21521;SDS011;10922;45.572;10.002;2023-05-18T05:30:51;4.57;;;3.13;;
21521;SDS011;10922;45.572;10.002;2023-05-18T05:33:17;3.87;;;3.00;;
21521;SDS011;10922;45.572;10.002;2023-05-18T05:35:43;5.10;;;3.27;;
21521;SDS011;10922;45.572;10.002;2023-05-18T05:38:08;3.90;;;2.93;;
21521;SDS011;10922;45.572;10.002;2023-05-18T05:40:34;5.10;;;2.57;;
21521;SDS011;10922;45.572;10.002;2023-05-18T05:43:00;3.43;;;2.00;;
21521;SDS011;10922;45.572;10.002;2023-05-18T05:45:26;3.00;;;1.80;;
21521;SDS011;10922;45.572;10.002;2023-05-18T05:47:54;3.30;;;2.00;;
21521;SDS011;10922;45.572;10.002;2023-05-18T05:50:20;2.80;;;2.20;;
21521;SDS011;10922;45.572;10.002;2023-05-18T05:52:46;3.17;;;2.47;;
21521;SDS011;10922;45.572;10.002;2023-05-18T05:55:11;2.83;;;2.00;;
21521;SDS011;10922;45.572;10.002;2023-05-18T05:57:37;2.60;;;2.30;;
21521;SDS011;10922;45.572;10.002;2023-05-18T06:00:07;3.13;;;2.27;;
21521;SDS011;10922;45.572;10.002;2023-05-18T06:02:34;6.60;;;2.50;;
21521;SDS011;10922;45.572;10.002;2023-05-18T06:05:00;5.10;;;2.77;;
21521;SDS011;10922;45.572;10.002;2023-05-18T06:07:26;2.70;;;2.50;;
21521;SDS011;10922;45.572;10.002;2023-05-18T06:09:52;5.50;;;2.30;;
21521;SDS011;10922;45.572;10.002;2023-05-18T06:12:17;3.10;;;2.30;;
21521;SDS011;10922;45.572;10.002;2023-05-18T06:14:43;3.00;;;1.97;;
21521;SDS011;10922;45.572;10.002;2023-05-18T06:17:09;2.90;;;2.00;;
21521;SDS011;10922;45.572;10.002;2023-05-18T06:19:34;4.03;;;2.30;;
21521;SDS011;10922;45.572;10.002;2023-05-18T06:22:00;3.33;;;2.70;;
21521;SDS011;10922;45.572;10.002;2023-05-18T06:24:25;3.13;;;2.80;;
21521;SDS011;10922;45.572;10.002;2023-05-18T06:26:51;3.13;;;2.77;;
21521;SDS011;10922;45.572;10.002;2023-05-18T06:29:18;5.10;;;3.33;;
21521;SDS011;10922;45.572;10.002;2023-05-18T06:31:45;4.67;;;3.10;;
21521;SDS011;10922;45.572;10.002;2023-05-18T06:34:11;6.17;;;2.47;;
21521;SDS011;10922;45.572;10.002;2023-05-18T06:36:37;2.53;;;2.17;;
21521;SDS011;10922;45.572;10.002;2023-05-18T06:39:03;3.30;;;2.73;;
21521;SDS011;10922;45.572;10.002;2023-05-18T06:41:29;5.33;;;2.80;;
21521;SDS011;10922;45.572;10.002;2023-05-18T06:43:56;2.63;;;2.30;;
21521;SDS011;10922;45.572;10.002;2023-05-18T06:46:24;1.70;;;1.60;;
21521;SDS011;10922;45.572;10.002;2023-05-18T06:48:50;1.63;;;1.40;;
21521;SDS011;10922;45.572;10.002;2023-05-18T06:51:16;8.63;;;1.47;;
21521;SDS011;10922;45.572;10.002;2023-05-18T06:53:42;2.83;;;1.67;;
21521;SDS011;10922;45.572;10.002;2023-05-18T06:56:08;2.67;;;1.50;;
21521;SDS011;10922;45.572;10.002;2023-05-18T06:58:36;1.50;;;1.13;;
21521;SDS011;10922;45.572;10.002;2023-05-18T07:01:03;1.47;;;1.10;;
21521;SDS011;10922;45.572;10.002;2023-05-18T07:03:28;2.07;;;1.20;;
21521;SDS011;10922;45.572;10.002;2023-05-18T07:05:54;2.13;;;1.70;;
21521;SDS011;10922;45.572;10.002;2023-05-18T07:08:20;2.33;;;1.37;;
21521;SDS011;10922;45.572;10.002;2023-05-18T07:10:46;2.17;;;1.43;;
21521;SDS011;10922;45.572;10.002;2023-05-18T07:13:11;2.67;;;1.40;;
21521;SDS011;10922;45.572;10.002;2023-05-18T07:15:37;1.70;;;1.30;;
21521;SDS011;10922;45.572;10.002;2023-05-18T07:18:03;3.03;;;1.20;;
21521;SDS011;10922;45.572;10.002;2023-05-18T07:20:29;2.87;;;1.50;;
21521;SDS011;10922;45.572;10.002;2023-05-18T07:22:54;1.27;;;1.17;;
21521;SDS011;10922;45.572;10.002;2023-05-18T07:25:21;2.67;;;1.60;;
21521;SDS011;10922;45.572;10.002;2023-05-18T07:27:47;1.93;;;1.20;;
21521;SDS011;10922;45.572;10.002;2023-05-18T07:30:12;1.00;;;0.90;;
21521;SDS011;10922;45.572;10.002;2023-05-18T07:32:38;1.67;;;1.20;;
21521;SDS011;10922;45.572;10.002;2023-05-18T07:35:04;2.00;;;1.30;;
21521;SDS011;10922;45.572;10.002;2023-05-18T07:37:30;1.40;;;1.30;;
21521;SDS011;10922;45.572;10.002;2023-05-18T07:39:56;1.87;;;1.00;;
21521;SDS011;10922;45.572;10.002;2023-05-18T07:42:21;2.10;;;0.83;;
21521;SDS011;10922;45.572;10.002;2023-05-18T07:44:47;4.47;;;1.43;;
21521;SDS011;10922;45.572;10.002;2023-05-18T07:47:12;2.90;;;0.90;;
21521;SDS011;10922;45.572;10.002;2023-05-18T07:49:38;1.10;;;1.10;;
21521;SDS011;10922;45.572;10.002;2023-05-18T07:52:05;0.97;;;0.97;;
21521;SDS011;10922;45.572;10.002;2023-05-18T07:54:32;1.10;;;1.00;;
21521;SDS011;10922;45.572;10.002;2023-05-18T07:56:58;1.13;;;0.83;;
21521;SDS011;10922;45.572;10.002;2023-05-18T07:59:24;1.10;;;1.00;;
21521;SDS011;10922;45.572;10.002;2023-05-18T08:01:49;1.30;;;1.20;;
21521;SDS011;10922;45.572;10.002;2023-05-18T08:04:15;1.87;;;1.10;;
21521;SDS011;10922;45.572;10.002;2023-05-18T08:06:41;1.03;;;0.97;;
21521;SDS011;10922;45.572;10.002;2023-05-18T08:09:06;1.50;;;1.40;;
21521;SDS011;10922;45.572;10.002;2023-05-18T08:11:32;2.40;;;1.70;;
21521;SDS011;10922;45.572;10.002;2023-05-18T08:13:58;2.10;;;1.90;;
21521;SDS011;10922;45.572;10.002;2023-05-18T08:16:24;4.27;;;2.03;;
21521;SDS011;10922;45.572;10.002;2023-05-18T08:18:49;1.60;;;1.50;;
21521;SDS011;10922;45.572;10.002;2023-05-18T08:21:15;2.20;;;2.00;;
21521;SDS011;10922;45.572;10.002;2023-05-18T08:23:41;3.83;;;1.43;;
21521;SDS011;10922;45.572;10.002;2023-05-18T08:26:07;3.00;;;1.97;;
21521;SDS011;10922;45.572;10.002;2023-05-18T08:28:33;2.30;;;1.80;;
21521;SDS011;10922;45.572;10.002;2023-05-18T08:30:59;1.73;;;1.63;;
21521;SDS011;10922;45.572;10.002;2023-05-18T08:33:25;3.07;;;1.80;;
21521;SDS011;10922;45.572;10.002;2023-05-18T08:35:50;1.90;;;1.80;;
21521;SDS011;10922;45.572;10.002;2023-05-18T08:38:16;2.10;;;1.83;;
21521;SDS011;10922;45.572;10.002;2023-05-18T08:40:45;1.87;;;1.77;;
21521;SDS011;10922;45.572;10.002;2023-05-18T08:43:21;2.87;;;2.07;;
21521;SDS011;10922;45.572;10.002;2023-05-18T08:48:41;2.47;;;1.93;;
21521;SDS011;10922;45.572;10.002;2023-05-18T08:51:10;4.00;;;1.77;;
21521;SDS011;10922;45.572;10.002;2023-05-18T08:53:39;3.67;;;1.87;;
21521;SDS011;10922;45.572;10.002;2023-05-18T08:56:06;2.43;;;1.73;;
21521;SDS011;10922;45.572;10.002;2023-05-18T08:58:35;3.30;;;2.10;;
21521;SDS011;10922;45.572;10.002;2023-05-18T09:01:07;2.00;;;1.77;;
21521;SDS011;10922;45.572;10.002;2023-05-18T09:03:35;3.37;;;2.13;;
21521;SDS011;10922;45.572;10.002;2023-05-18T09:06:02;3.23;;;2.13;;
21521;SDS011;10922;45.572;10.002;2023-05-18T09:08:31;3.77;;;2.13;;
21521;SDS011;10922;45.572;10.002;2023-05-18T09:11:00;2.97;;;2.00;;
21521;SDS011;10922;45.572;10.002;2023-05-18T09:13:28;2.57;;;1.60;;
21521;SDS011;10922;45.572;10.002;2023-05-18T09:15:54;2.07;;;1.73;;
21521;SDS011;10922;45.572;10.002;2023-05-18T09:18:19;1.80;;;1.70;;
21521;SDS011;10922;45.572;10.002;2023-05-18T09:20:45;2.30;;;1.87;;
21521;SDS011;10922;45.572;10.002;2023-05-18T09:23:11;2.17;;;1.93;;
21521;SDS011;10922;45.572;10.002;2023-05-18T09:25:41;3.13;;;2.00;;
21521;SDS011;10922;45.572;10.002;2023-05-18T09:28:10;3.90;;;1.97;;
21521;SDS011;10922;45.572;10.002;2023-05-18T09:30:41;2.37;;;2.17;;
21521;SDS011;10922;45.572;10.002;2023-05-18T09:33:17;2.40;;;2.17;;
21521;SDS011;10922;45.572;10.002;2023-05-18T09:35:45;2.97;;;2.38;;
21521;SDS011;10922;45.572;10.002;2023-05-18T09:38:14;3.95;;;2.35;;
21521;SDS011;10922;45.572;10.002;2023-05-18T09:40:44;2.75;;;2.47;;
21521;SDS011;10922;45.572;10.002;2023-05-18T09:43:10;2.17;;;2.00;;
21521;SDS011;10922;45.572;10.002;2023-05-18T09:45:43;2.30;;;2.10;;
21521;SDS011;10922;45.572;10.002;2023-05-18T09:48:10;2.97;;;2.07;;
21521;SDS011;10922;45.572;10.002;2023-05-18T09:50:37;2.70;;;2.00;;
21521;SDS011;10922;45.572;10.002;2023-05-18T09:53:06;2.80;;;2.30;;
21521;SDS011;10922;45.572;10.002;2023-05-18T09:55:35;2.45;;;2.10;;
21521;SDS011;10922;45.572;10.002;2023-05-18T09:58:05;3.73;;;2.50;;
21521;SDS011;10922;45.572;10.002;2023-05-18T10:00:34;2.93;;;2.27;;
21521;SDS011;10922;45.572;10.002;2023-05-18T10:03:02;4.90;;;2.37;;
21521;SDS011;10922;45.572;10.002;2023-05-18T10:05:28;2.63;;;2.27;;
21521;SDS011;10922;45.572;10.002;2023-05-18T10:07:58;2.90;;;2.70;;
21521;SDS011;10922;45.572;10.002;2023-05-18T10:10:25;2.70;;;2.27;;
21521;SDS011;10922;45.572;10.002;2023-05-18T10:12:54;3.83;;;2.23;;
21521;SDS011;10922;45.572;10.002;2023-05-18T10:15:22;3.97;;;3.10;;
21521;SDS011;10922;45.572;10.002;2023-05-18T10:17:49;3.43;;;3.03;;
21521;SDS011;10922;45.572;10.002;2023-05-18T10:20:19;2.67;;;2.47;;
21521;SDS011;10922;45.572;10.002;2023-05-18T10:22:50;2.90;;;2.30;;
21521;SDS011;10922;45.572;10.002;2023-05-18T10:25:19;3.13;;;2.53;;
21521;SDS011;10922;45.572;10.002;2023-05-18T10:27:49;4.53;;;2.73;;
21521;SDS011;10922;45.572;10.002;2023-05-18T10:30:19;2.67;;;2.40;;
21521;SDS011;10922;45.572;10.002;2023-05-18T10:32:47;4.60;;;2.57;;
21521;SDS011;10922;45.572;10.002;2023-05-18T10:35:13;2.77;;;2.30;;
21521;SDS011;10922;45.572;10.002;2023-05-18T10:37:42;3.50;;;2.80;;
21521;SDS011;10922;45.572;10.002;2023-05-18T10:40:11;2.77;;;2.57;;
21521;SDS011;10922;45.572;10.002;2023-05-18T10:42:39;5.23;;;2.50;;
21521;SDS011;10922;45.572;10.002;2023-05-18T10:45:06;2.50;;;2.30;;
21521;SDS011;10922;45.572;10.002;2023-05-18T10:47:34;6.20;;;2.70;;
21521;SDS011;10922;45.572;10.002;2023-05-18T10:50:04;2.87;;;2.67;;
21521;SDS011;10922;45.572;10.002;2023-05-18T10:52:30;2.73;;;2.50;;
21521;SDS011;10922;45.572;10.002;2023-05-18T10:54:57;3.73;;;2.67;;
21521;SDS011;10922;45.572;10.002;2023-05-18T10:57:29;3.47;;;2.93;;
21521;SDS011;10922;45.572;10.002;2023-05-18T11:00:02;4.07;;;3.00;;
21521;SDS011;10922;45.572;10.002;2023-05-18T11:02:31;3.20;;;2.90;;
21521;SDS011;10922;45.572;10.002;2023-05-18T11:04:58;5.43;;;3.07;;
21521;SDS011;10922;45.572;10.002;2023-05-18T11:07:23;4.40;;;3.60;;
21521;SDS011;10922;45.572;10.002;2023-05-18T11:09:52;3.03;;;2.57;;
21521;SDS011;10922;45.572;10.002;2023-05-18T11:12:18;2.83;;;2.60;;
21521;SDS011;10922;45.572;10.002;2023-05-18T11:14:51;9.23;;;2.97;;
21521;SDS011;10922;45.572;10.002;2023-05-18T11:17:21;3.60;;;2.17;;
21521;SDS011;10922;45.572;10.002;2023-05-18T11:22:51;2.90;;;2.70;;
21521;SDS011;10922;45.572;10.002;2023-05-18T11:28:01;2.40;;;2.30;;
21521;SDS011;10922;45.572;10.002;2023-05-18T11:38:52;2.88;;;2.60;;
21521;SDS011;10922;45.572;10.002;2023-05-18T11:41:28;2.47;;;2.28;;
21521;SDS011;10922;45.572;10.002;2023-05-18T11:46:30;3.63;;;2.42;;
21521;SDS011;10922;45.572;10.002;2023-05-18T11:49:01;2.97;;;2.60;;
21521;SDS011;10922;45.572;10.002;2023-05-18T11:51:29;2.85;;;2.65;;
21521;SDS011;10922;45.572;10.002;2023-05-18T11:53:56;2.40;;;2.03;;
21521;SDS011;10922;45.572;10.002;2023-05-18T11:56:24;2.25;;;1.83;;
21521;SDS011;10922;45.572;10.002;2023-05-18T12:01:35;2.58;;;2.38;;
21521;SDS011;10922;45.572;10.002;2023-05-18T12:04:02;3.10;;;2.50;;
21521;SDS011;10922;45.572;10.002;2023-05-18T12:06:28;2.60;;;2.30;;
21521;SDS011;10922;45.572;10.002;2023-05-18T12:08:54;3.38;;;2.03;;
21521;SDS011;10922;45.572;10.002;2023-05-18T12:11:20;3.83;;;2.20;;
21521;SDS011;10922;45.572;10.002;2023-05-18T12:13:46;2.30;;;2.10;;
21521;SDS011;10922;45.572;10.002;2023-05-18T12:16:15;2.03;;;1.92;;
21521;SDS011;10922;45.572;10.002;2023-05-18T12:18:47;3.15;;;2.25;;
21521;SDS011;10922;45.572;10.002;2023-05-18T12:21:13;2.33;;;1.92;;
21521;SDS011;10922;45.572;10.002;2023-05-18T12:23:40;2.42;;;2.22;;
21521;SDS011;10922;45.572;10.002;2023-05-18T12:26:06;2.38;;;2.17;;
21521;SDS011;10922;45.572;10.002;2023-05-18T12:28:32;2.42;;;2.22;;
21521;SDS011;10922;45.572;10.002;2023-05-18T12:30:57;2.22;;;2.03;;
21521;SDS011;10922;45.572;10.002;2023-05-18T12:33:24;2.50;;;2.15;;
21521;SDS011;10922;45.572;10.002;2023-05-18T12:35:49;4.07;;;2.30;;
21521;SDS011;10922;45.572;10.002;2023-05-18T12:38:18;2.28;;;2.10;;
21521;SDS011;10922;45.572;10.002;2023-05-18T12:40:45;2.35;;;2.05;;
21521;SDS011;10922;45.572;10.002;2023-05-18T12:43:12;2.45;;;2.25;;
21521;SDS011;10922;45.572;10.002;2023-05-18T12:45:38;2.80;;;2.50;;
21521;SDS011;10922;45.572;10.002;2023-05-18T12:48:05;2.75;;;2.38;;
21521;SDS011;10922;45.572;10.002;2023-05-18T12:50:31;2.00;;;1.80;;
21521;SDS011;10922;45.572;10.002;2023-05-18T12:52:57;2.88;;;1.80;;
21521;SDS011;10922;45.572;10.002;2023-05-18T12:55:23;2.15;;;1.83;;
21521;SDS011;10922;45.572;10.002;2023-05-18T13:00:24;2.92;;;1.83;;
21521;SDS011;10922;45.572;10.002;2023-05-18T13:02:50;2.92;;;2.13;;
21521;SDS011;10922;45.572;10.002;2023-05-18T13:05:16;2.10;;;1.98;;
21521;SDS011;10922;45.572;10.002;2023-05-18T13:07:48;2.50;;;2.30;;
21521;SDS011;10922;45.572;10.002;2023-05-18T13:10:15;2.72;;;1.95;;
21521;SDS011;10922;45.572;10.002;2023-05-18T13:15:18;1.90;;;1.80;;
21521;SDS011;10922;45.572;10.002;2023-05-18T13:20:42;2.38;;;1.90;;
21521;SDS011;10922;45.572;10.002;2023-05-18T13:23:17;2.15;;;2.00;;
21521;SDS011;10922;45.572;10.002;2023-05-18T13:25:47;2.83;;;2.20;;
21521;SDS011;10922;45.572;10.002;2023-05-18T13:28:14;3.92;;;2.20;;
21521;SDS011;10922;45.572;10.002;2023-05-18T13:30:41;4.55;;;2.38;;
21521;SDS011;10922;45.572;10.002;2023-05-18T13:33:08;4.63;;;2.40;;
21521;SDS011;10922;45.572;10.002;2023-05-18T13:35:38;3.50;;;2.10;;
21521;SDS011;10922;45.572;10.002;2023-05-18T13:38:06;3.30;;;2.30;;
21521;SDS011;10922;45.572;10.002;2023-05-18T13:40:36;2.55;;;2.35;;
21521;SDS011;10922;45.572;10.002;2023-05-18T13:43:02;2.60;;;2.40;;
21521;SDS011;10922;45.572;10.002;2023-05-18T13:45:30;3.45;;;2.15;;
21521;SDS011;10922;45.572;10.002;2023-05-18T13:47:55;2.65;;;2.42;;
21521;SDS011;10922;45.572;10.002;2023-05-18T13:50:21;4.82;;;2.40;;
21521;SDS011;10922;45.572;10.002;2023-05-18T13:52:47;3.70;;;2.22;;
21521;SDS011;10922;45.572;10.002;2023-05-18T13:55:13;2.40;;;2.20;;
21521;SDS011;10922;45.572;10.002;2023-05-18T13:57:39;3.92;;;2.33;;
21521;SDS011;10922;45.572;10.002;2023-05-18T14:00:05;2.92;;;2.58;;
21521;SDS011;10922;45.572;10.002;2023-05-18T14:02:43;4.20;;;2.47;;
21521;SDS011;10922;45.572;10.002;2023-05-18T14:05:10;3.47;;;2.65;;
21521;SDS011;10922;45.572;10.002;2023-05-18T14:07:38;3.90;;;2.55;;
21521;SDS011;10922;45.572;10.002;2023-05-18T14:10:04;3.28;;;2.33;;
21521;SDS011;10922;45.572;10.002;2023-05-18T14:12:31;2.60;;;2.40;;
21521;SDS011;10922;45.572;10.002;2023-05-18T14:14:57;2.45;;;2.17;;
21521;SDS011;10922;45.572;10.002;2023-05-18T14:17:23;3.17;;;2.35;;
21521;SDS011;10922;45.572;10.002;2023-05-18T14:19:49;2.00;;;1.80;;
21521;SDS011;10922;45.572;10.002;2023-05-18T14:22:14;2.75;;;2.28;;
21521;SDS011;10922;45.572;10.002;2023-05-18T14:24:41;3.42;;;2.63;;
21521;SDS011;10922;45.572;10.002;2023-05-18T14:27:07;2.38;;;2.15;;
21521;SDS011;10922;45.572;10.002;2023-05-18T14:29:32;3.35;;;1.90;;
21521;SDS011;10922;45.572;10.002;2023-05-18T14:31:58;3.25;;;2.22;;
21521;SDS011;10922;45.572;10.002;2023-05-18T14:34:24;3.60;;;2.20;;
21521;SDS011;10922;45.572;10.002;2023-05-18T14:36:51;7.45;;;3.10;;
21521;SDS011;10922;45.572;10.002;2023-05-18T14:39:17;4.68;;;2.50;;
21521;SDS011;10922;45.572;10.002;2023-05-18T14:41:42;3.47;;;2.42;;
21521;SDS011;10922;45.572;10.002;2023-05-18T14:46:34;4.17;;;2.97;;
21521;SDS011;10922;45.572;10.002;2023-05-18T14:49:00;9.52;;;3.55;;
21521;SDS011;10922;45.572;10.002;2023-05-18T14:51:26;3.70;;;2.47;;
21521;SDS011;10922;45.572;10.002;2023-05-18T14:53:52;2.83;;;2.50;;
21521;SDS011;10922;45.572;10.002;2023-05-18T14:56:17;5.57;;;2.73;;
21521;SDS011;10922;45.572;10.002;2023-05-18T14:58:43;4.93;;;2.80;;
21521;SDS011;10922;45.572;10.002;2023-05-18T15:01:09;4.40;;;2.65;;
21521;SDS011;10922;45.572;10.002;2023-05-18T15:03:35;5.25;;;2.80;;
21521;SDS011;10922;45.572;10.002;2023-05-18T15:06:01;3.90;;;2.13;;
21521;SDS011;10922;45.572;10.002;2023-05-18T15:08:26;4.60;;;2.13;;
21521;SDS011;10922;45.572;10.002;2023-05-18T15:10:53;6.67;;;2.67;;
21521;SDS011;10922;45.572;10.002;2023-05-18T15:13:19;2.67;;;2.30;;